sensor_id;sensor_type;location;lat;lon;timestamp;temperature;humidity
13642;DHT22;6894;52.196;9.904;2024-01-07T00:00:04;0.50;1.00
13642;DHT22;6894;52.196;9.904;2024-01-07T00:02:32;0.60;1.00
13642;DHT22;6894;52.196;9.904;2024-01-07T00:04:59;0.50;1.00
13642;DHT22;6894;52.196;9.904;2024-01-07T00:07:27;0.50;1.00
13642;DHT22;6894;52.196;9.904;2024-01-07T00:09:54;0.50;1.00
13642;DHT22;6894;52.196;9.904;2024-01-07T00:12:20;0.50;1.00
13642;DHT22;6894;52.196;9.904;2024-01-07T00:14:47;0.50;1.00
13642;DHT22;6894;52.196;9.904;2024-01-07T00:17:14;0.50;1.00
13642;DHT22;6894;52.196;9.904;2024-01-07T00:19:42;0.50;1.00
13642;DHT22;6894;52.196;9.904;2024-01-07T00:22:09;0.50;1.00
13642;DHT22;6894;52.196;9.904;2024-01-07T00:24:36;0.50;1.00
13642;DHT22;6894;52.196;9.904;2024-01-07T00:27:03;0.50;1.00
13642;DHT22;6894;52.196;9.904;2024-01-07T00:29:30;0.50;1.00
13642;DHT22;6894;52.196;9.904;2024-01-07T00:31:56;0.50;1.00
13642;DHT22;6894;52.196;9.904;2024-01-07T00:34:23;0.50;1.00
13642;DHT22;6894;52.196;9.904;2024-01-07T00:36:51;0.50;1.00
13642;DHT22;6894;52.196;9.904;2024-01-07T00:39:18;0.50;1.00
13642;DHT22;6894;52.196;9.904;2024-01-07T00:41:45;0.50;1.00
13642;DHT22;6894;52.196;9.904;2024-01-07T00:44:12;0.50;1.00
13642;DHT22;6894;52.196;9.904;2024-01-07T00:46:38;0.50;1.00
13642;DHT22;6894;52.196;9.904;2024-01-07T00:49:05;0.40;1.00
13642;DHT22;6894;52.196;9.904;2024-01-07T00:51:32;0.40;1.00
13642;DHT22;6894;52.196;9.904;2024-01-07T00:54:00;0.40;1.00
13642;DHT22;6894;52.196;9.904;2024-01-07T00:56:27;0.40;1.00
13642;DHT22;6894;52.196;9.904;2024-01-07T00:58:54;0.30;1.00
13642;DHT22;6894;52.196;9.904;2024-01-07T01:01:21;0.40;1.00
13642;DHT22;6894;52.196;9.904;2024-01-07T01:03:47;0.60;1.00
13642;DHT22;6894;52.196;9.904;2024-01-07T01:06:14;0.30;1.00
13642;DHT22;6894;52.196;9.904;2024-01-07T01:08:41;0.30;1.00
13642;DHT22;6894;52.196;9.904;2024-01-07T01:11:10;0.30;1.00
13642;DHT22;6894;52.196;9.904;2024-01-07T01:13:37;0.30;1.00
13642;DHT22;6894;52.196;9.904;2024-01-07T01:16:04;0.30;1.00
13642;DHT22;6894;52.196;9.904;2024-01-07T01:18:31;0.30;1.00
13642;DHT22;6894;52.196;9.904;2024-01-07T01:20:58;0.30;1.00
13642;DHT22;6894;52.196;9.904;2024-01-07T01:23:24;0.30;1.00
13642;DHT22;6894;52.196;9.904;2024-01-07T01:25:51;0.30;1.00
13642;DHT22;6894;52.196;9.904;2024-01-07T01:28:19;0.20;1.00
13642;DHT22;6894;52.196;9.904;2024-01-07T01:30:46;0.20;1.00
13642;DHT22;6894;52.196;9.904;2024-01-07T01:33:13;0.20;1.00
13642;DHT22;6894;52.196;9.904;2024-01-07T01:35:39;0.20;1.00
13642;DHT22;6894;52.196;9.904;2024-01-07T01:38:06;0.20;1.00
13642;DHT22;6894;52.196;9.904;2024-01-07T01:40:33;0.20;1.00
13642;DHT22;6894;52.196;9.904;2024-01-07T01:43:00;0.20;1.00
13642;DHT22;6894;52.196;9.904;2024-01-07T01:45:28;0.20;1.00
13642;DHT22;6894;52.196;9.904;2024-01-07T01:47:55;0.20;1.00
13642;DHT22;6894;52.196;9.904;2024-01-07T01:50:23;0.20;1.00
13642;DHT22;6894;52.196;9.904;2024-01-07T01:52:50;0.20;1.00
13642;DHT22;6894;52.196;9.904;2024-01-07T01:55:18;0.20;1.00
13642;DHT22;6894;52.196;9.904;2024-01-07T01:57:45;0.10;1.00
13642;DHT22;6894;52.196;9.904;2024-01-07T02:00:13;0.10;1.00
13642;DHT22;6894;52.196;9.904;2024-01-07T02:02:41;0.10;1.00
13642;DHT22;6894;52.196;9.904;2024-01-07T02:05:08;0.10;1.00
13642;DHT22;6894;52.196;9.904;2024-01-07T02:07:35;0.10;1.00
13642;DHT22;6894;52.196;9.904;2024-01-07T02:10:02;0.00;1.00
13642;DHT22;6894;52.196;9.904;2024-01-07T02:12:29;0.00;1.00
13642;DHT22;6894;52.196;9.904;2024-01-07T02:14:56;0.00;1.00
13642;DHT22;6894;52.196;9.904;2024-01-07T02:17:23;0.00;1.00
13642;DHT22;6894;52.196;9.904;2024-01-07T02:19:51;0.00;1.00
13642;DHT22;6894;52.196;9.904;2024-01-07T02:22:18;0.00;1.00
13642;DHT22;6894;52.196;9.904;2024-01-07T02:24:46;0.00;1.00
13642;DHT22;6894;52.196;9.904;2024-01-07T02:27:13;0.00;1.00
13642;DHT22;6894;52.196;9.904;2024-01-07T02:29:40;-0.10;1.00
13642;DHT22;6894;52.196;9.904;2024-01-07T02:32:06;-0.10;1.00
13642;DHT22;6894;52.196;9.904;2024-01-07T02:34:33;-0.10;1.00
13642;DHT22;6894;52.196;9.904;2024-01-07T02:37:00;-0.10;1.00
13642;DHT22;6894;52.196;9.904;2024-01-07T02:39:27;-0.10;1.00
13642;DHT22;6894;52.196;9.904;2024-01-07T02:41:55;-1.10;1.00
13642;DHT22;6894;52.196;9.904;2024-01-07T02:44:22;-0.10;1.00
13642;DHT22;6894;52.196;9.904;2024-01-07T02:46:48;-0.10;99.90
13642;DHT22;6894;52.196;9.904;2024-01-07T02:49:15;-0.20;99.90
13642;DHT22;6894;52.196;9.904;2024-01-07T02:51:42;-0.20;99.90
13642;DHT22;6894;52.196;9.904;2024-01-07T02:54:10;-0.20;99.90
13642;DHT22;6894;52.196;9.904;2024-01-07T02:56:37;-0.20;99.90
13642;DHT22;6894;52.196;9.904;2024-01-07T02:59:05;-0.30;99.90
13642;DHT22;6894;52.196;9.904;2024-01-07T03:01:32;-0.30;99.90
13642;DHT22;6894;52.196;9.904;2024-01-07T03:04:05;-0.30;99.90
13642;DHT22;6894;52.196;9.904;2024-01-07T03:06:32;-0.30;99.90
13642;DHT22;6894;52.196;9.904;2024-01-07T03:08:59;-0.30;99.90
13642;DHT22;6894;52.196;9.904;2024-01-07T03:11:25;-0.20;99.90
13642;DHT22;6894;52.196;9.904;2024-01-07T03:13:52;-0.30;99.90
13642;DHT22;6894;52.196;9.904;2024-01-07T03:16:21;-0.20;99.90
13642;DHT22;6894;52.196;9.904;2024-01-07T03:18:48;-0.20;99.90
13642;DHT22;6894;52.196;9.904;2024-01-07T03:21:18;-0.30;99.90
13642;DHT22;6894;52.196;9.904;2024-01-07T03:23:45;-0.30;99.90
13642;DHT22;6894;52.196;9.904;2024-01-07T03:26:12;-0.30;99.90
13642;DHT22;6894;52.196;9.904;2024-01-07T03:28:39;-0.10;99.90
13642;DHT22;6894;52.196;9.904;2024-01-07T03:31:09;-0.40;99.90
13642;DHT22;6894;52.196;9.904;2024-01-07T03:33:37;-0.40;99.90
13642;DHT22;6894;52.196;9.904;2024-01-07T03:36:07;-0.40;99.90
13642;DHT22;6894;52.196;9.904;2024-01-07T03:38:34;-0.40;99.90
13642;DHT22;6894;52.196;9.904;2024-01-07T03:41:01;-0.40;99.90
13642;DHT22;6894;52.196;9.904;2024-01-07T03:43:28;-0.40;99.90
13642;DHT22;6894;52.196;9.904;2024-01-07T03:45:55;-0.40;99.90
13642;DHT22;6894;52.196;9.904;2024-01-07T03:48:22;-0.40;99.90
13642;DHT22;6894;52.196;9.904;2024-01-07T03:50:50;-0.40;99.90
13642;DHT22;6894;52.196;9.904;2024-01-07T03:53:17;-0.40;99.90
13642;DHT22;6894;52.196;9.904;2024-01-07T03:55:44;-0.40;99.90
13642;DHT22;6894;52.196;9.904;2024-01-07T03:58:10;-0.50;99.90
13642;DHT22;6894;52.196;9.904;2024-01-07T04:00:37;-0.40;99.90
13642;DHT22;6894;52.196;9.904;2024-01-07T04:03:04;-0.50;99.90
13642;DHT22;6894;52.196;9.904;2024-01-07T04:05:31;-0.50;99.90
13642;DHT22;6894;52.196;9.904;2024-01-07T04:08:00;-0.50;99.90
13642;DHT22;6894;52.196;9.904;2024-01-07T04:10:27;-0.50;99.90
13642;DHT22;6894;52.196;9.904;2024-01-07T04:12:54;-0.50;99.90
13642;DHT22;6894;52.196;9.904;2024-01-07T04:15:20;-0.50;99.90
13642;DHT22;6894;52.196;9.904;2024-01-07T04:17:47;-0.50;99.90
13642;DHT22;6894;52.196;9.904;2024-01-07T04:20:14;-0.50;99.90
13642;DHT22;6894;52.196;9.904;2024-01-07T04:22:41;-0.50;99.90
13642;DHT22;6894;52.196;9.904;2024-01-07T04:25:09;-0.50;99.90
13642;DHT22;6894;52.196;9.904;2024-01-07T04:27:36;-0.50;99.90
13642;DHT22;6894;52.196;9.904;2024-01-07T04:30:06;-0.50;96.60
13642;DHT22;6894;52.196;9.904;2024-01-07T04:32:33;-0.60;73.10
13642;DHT22;6894;52.196;9.904;2024-01-07T04:35:00;-0.50;13.30
13642;DHT22;6894;52.196;9.904;2024-01-07T04:37:27;-0.60;1.00
13642;DHT22;6894;52.196;9.904;2024-01-07T04:39:54;-0.60;1.00
13642;DHT22;6894;52.196;9.904;2024-01-07T04:42:22;-0.60;1.00
13642;DHT22;6894;52.196;9.904;2024-01-07T04:44:48;-0.60;1.00
13642;DHT22;6894;52.196;9.904;2024-01-07T04:47:26;-0.60;1.00
13642;DHT22;6894;52.196;9.904;2024-01-07T04:49:53;-0.70;1.00
13642;DHT22;6894;52.196;9.904;2024-01-07T04:52:21;-0.60;1.00
13642;DHT22;6894;52.196;9.904;2024-01-07T04:54:48;-0.50;1.00
13642;DHT22;6894;52.196;9.904;2024-01-07T04:57:15;-0.20;1.00
13642;DHT22;6894;52.196;9.904;2024-01-07T04:59:43;-0.50;1.00
13642;DHT22;6894;52.196;9.904;2024-01-07T05:02:10;-0.60;99.90
13642;DHT22;6894;52.196;9.904;2024-01-07T05:04:37;-0.60;93.20
13642;DHT22;6894;52.196;9.904;2024-01-07T05:07:04;-0.60;1.00
13642;DHT22;6894;52.196;9.904;2024-01-07T05:09:32;-0.60;1.00
13642;DHT22;6894;52.196;9.904;2024-01-07T05:11:59;-0.50;1.00
13642;DHT22;6894;52.196;9.904;2024-01-07T05:14:25;-0.60;1.00
13642;DHT22;6894;52.196;9.904;2024-01-07T05:16:54;-0.60;1.00
13642;DHT22;6894;52.196;9.904;2024-01-07T05:19:21;-0.50;1.00
13642;DHT22;6894;52.196;9.904;2024-01-07T05:21:48;-0.50;1.00
13642;DHT22;6894;52.196;9.904;2024-01-07T05:24:15;-0.60;1.00
13642;DHT22;6894;52.196;9.904;2024-01-07T05:26:42;-0.50;1.00
13642;DHT22;6894;52.196;9.904;2024-01-07T05:29:10;-0.60;1.00
13642;DHT22;6894;52.196;9.904;2024-01-07T05:31:37;-0.60;1.00
13642;DHT22;6894;52.196;9.904;2024-01-07T05:34:05;-0.60;99.90
13642;DHT22;6894;52.196;9.904;2024-01-07T05:36:32;-0.60;1.00
13642;DHT22;6894;52.196;9.904;2024-01-07T05:38:58;-0.60;1.00
13642;DHT22;6894;52.196;9.904;2024-01-07T05:41:25;-0.60;1.00
13642;DHT22;6894;52.196;9.904;2024-01-07T05:43:52;-0.60;99.90
13642;DHT22;6894;52.196;9.904;2024-01-07T05:46:19;-0.60;99.90
13642;DHT22;6894;52.196;9.904;2024-01-07T05:48:46;-0.70;1.00
13642;DHT22;6894;52.196;9.904;2024-01-07T05:51:15;-0.70;1.00
13642;DHT22;6894;52.196;9.904;2024-01-07T05:53:42;-0.20;1.00
13642;DHT22;6894;52.196;9.904;2024-01-07T05:56:09;-0.70;99.90
13642;DHT22;6894;52.196;9.904;2024-01-07T05:58:36;-0.70;59.00
13642;DHT22;6894;52.196;9.904;2024-01-07T06:01:03;-0.70;99.90
13642;DHT22;6894;52.196;9.904;2024-01-07T06:03:30;-0.70;1.00
13642;DHT22;6894;52.196;9.904;2024-01-07T06:05:57;-0.80;99.90
13642;DHT22;6894;52.196;9.904;2024-01-07T06:08:26;-0.80;1.00
13642;DHT22;6894;52.196;9.904;2024-01-07T06:10:52;-0.80;1.00
13642;DHT22;6894;52.196;9.904;2024-01-07T06:13:19;-0.80;1.00
13642;DHT22;6894;52.196;9.904;2024-01-07T06:15:46;-0.80;1.00
13642;DHT22;6894;52.196;9.904;2024-01-07T06:18:13;-0.70;4.40
13642;DHT22;6894;52.196;9.904;2024-01-07T06:20:39;-0.80;1.00
13642;DHT22;6894;52.196;9.904;2024-01-07T06:23:06;-0.80;1.00
13642;DHT22;6894;52.196;9.904;2024-01-07T06:25:35;-0.80;99.90
13642;DHT22;6894;52.196;9.904;2024-01-07T06:28:02;-0.90;92.70
13642;DHT22;6894;52.196;9.904;2024-01-07T06:30:28;-0.90;1.00
13642;DHT22;6894;52.196;9.904;2024-01-07T06:32:55;-0.80;99.90
13642;DHT22;6894;52.196;9.904;2024-01-07T06:35:22;-0.70;1.00
13642;DHT22;6894;52.196;9.904;2024-01-07T06:37:49;-1.00;58.50
13642;DHT22;6894;52.196;9.904;2024-01-07T06:40:16;-0.90;1.00
13642;DHT22;6894;52.196;9.904;2024-01-07T06:42:44;-1.00;99.90
13642;DHT22;6894;52.196;9.904;2024-01-07T06:45:10;-1.00;99.90
13642;DHT22;6894;52.196;9.904;2024-01-07T06:47:37;-1.00;1.00
13642;DHT22;6894;52.196;9.904;2024-01-07T06:50:05;-1.00;1.00
13642;DHT22;6894;52.196;9.904;2024-01-07T06:52:32;-1.00;37.50
13642;DHT22;6894;52.196;9.904;2024-01-07T06:54:59;-1.10;21.70
13642;DHT22;6894;52.196;9.904;2024-01-07T06:57:26;-1.10;99.90
13642;DHT22;6894;52.196;9.904;2024-01-07T06:59:54;-1.10;82.40
13642;DHT22;6894;52.196;9.904;2024-01-07T07:02:21;-1.10;93.40
13642;DHT22;6894;52.196;9.904;2024-01-07T07:04:48;-1.10;1.00
13642;DHT22;6894;52.196;9.904;2024-01-07T07:07:17;-1.10;1.00
13642;DHT22;6894;52.196;9.904;2024-01-07T07:09:43;-1.10;99.90
13642;DHT22;6894;52.196;9.904;2024-01-07T07:12:12;-1.10;99.90
13642;DHT22;6894;52.196;9.904;2024-01-07T07:14:39;-1.20;99.90
13642;DHT22;6894;52.196;9.904;2024-01-07T07:17:07;-1.10;1.00
13642;DHT22;6894;52.196;9.904;2024-01-07T07:19:34;-1.20;1.00
13642;DHT22;6894;52.196;9.904;2024-01-07T07:22:01;-1.10;1.00
13642;DHT22;6894;52.196;9.904;2024-01-07T07:24:27;-1.10;1.00
13642;DHT22;6894;52.196;9.904;2024-01-07T07:26:54;-1.10;1.00
13642;DHT22;6894;52.196;9.904;2024-01-07T07:29:21;-1.10;1.00
13642;DHT22;6894;52.196;9.904;2024-01-07T07:31:48;-1.10;27.60
13642;DHT22;6894;52.196;9.904;2024-01-07T07:34:16;-1.10;99.90
13642;DHT22;6894;52.196;9.904;2024-01-07T07:36:43;-1.10;99.90
13642;DHT22;6894;52.196;9.904;2024-01-07T07:39:10;-1.10;99.90
13642;DHT22;6894;52.196;9.904;2024-01-07T07:41:39;-1.20;1.00
13642;DHT22;6894;52.196;9.904;2024-01-07T07:44:05;-0.90;1.00
13642;DHT22;6894;52.196;9.904;2024-01-07T07:46:32;-1.00;99.90
13642;DHT22;6894;52.196;9.904;2024-01-07T07:48:59;-1.00;1.00
13642;DHT22;6894;52.196;9.904;2024-01-07T07:51:28;-1.00;1.00
13642;DHT22;6894;52.196;9.904;2024-01-07T07:53:55;-1.10;1.00
13642;DHT22;6894;52.196;9.904;2024-01-07T07:56:22;-1.10;1.00
13642;DHT22;6894;52.196;9.904;2024-01-07T07:58:49;-1.10;1.00
13642;DHT22;6894;52.196;9.904;2024-01-07T08:01:17;-1.10;1.00
13642;DHT22;6894;52.196;9.904;2024-01-07T08:03:44;-0.80;1.00
13642;DHT22;6894;52.196;9.904;2024-01-07T08:06:11;-1.10;1.00
13642;DHT22;6894;52.196;9.904;2024-01-07T08:08:39;-1.10;1.00
13642;DHT22;6894;52.196;9.904;2024-01-07T08:11:06;-1.10;1.00
13642;DHT22;6894;52.196;9.904;2024-01-07T08:13:35;-0.80;1.00
13642;DHT22;6894;52.196;9.904;2024-01-07T08:16:04;-1.00;1.00
13642;DHT22;6894;52.196;9.904;2024-01-07T08:18:31;-1.00;1.00
13642;DHT22;6894;52.196;9.904;2024-01-07T08:20:58;-1.00;99.90
13642;DHT22;6894;52.196;9.904;2024-01-07T08:23:25;-1.00;99.90
13642;DHT22;6894;52.196;9.904;2024-01-07T08:25:54;-1.00;1.00
13642;DHT22;6894;52.196;9.904;2024-01-07T08:28:21;-1.00;1.00
13642;DHT22;6894;52.196;9.904;2024-01-07T08:30:48;-0.90;99.90
13642;DHT22;6894;52.196;9.904;2024-01-07T08:33:17;-0.90;63.30
13642;DHT22;6894;52.196;9.904;2024-01-07T08:35:44;-0.80;55.80
13642;DHT22;6894;52.196;9.904;2024-01-07T08:38:11;-0.90;63.00
13642;DHT22;6894;52.196;9.904;2024-01-07T08:40:38;-1.00;1.00
13642;DHT22;6894;52.196;9.904;2024-01-07T08:43:07;-0.90;1.00
13642;DHT22;6894;52.196;9.904;2024-01-07T08:45:33;-0.90;1.00
13642;DHT22;6894;52.196;9.904;2024-01-07T08:48:00;-0.60;1.00
13642;DHT22;6894;52.196;9.904;2024-01-07T08:50:27;-0.50;1.00
13642;DHT22;6894;52.196;9.904;2024-01-07T08:52:55;-0.90;1.00
13642;DHT22;6894;52.196;9.904;2024-01-07T08:55:22;-0.90;99.90
13642;DHT22;6894;52.196;9.904;2024-01-07T08:57:49;-0.90;99.90
13642;DHT22;6894;52.196;9.904;2024-01-07T09:00:18;-0.90;99.90
13642;DHT22;6894;52.196;9.904;2024-01-07T09:02:46;-0.90;1.00
13642;DHT22;6894;52.196;9.904;2024-01-07T09:05:13;-0.80;99.90
13642;DHT22;6894;52.196;9.904;2024-01-07T09:07:40;-0.80;99.90
13642;DHT22;6894;52.196;9.904;2024-01-07T09:10:07;-0.80;99.90
13642;DHT22;6894;52.196;9.904;2024-01-07T09:12:36;-0.80;99.90
13642;DHT22;6894;52.196;9.904;2024-01-07T09:15:04;-0.80;1.00
13642;DHT22;6894;52.196;9.904;2024-01-07T09:17:34;-0.70;1.00
13642;DHT22;6894;52.196;9.904;2024-01-07T09:20:02;-0.80;1.00
13642;DHT22;6894;52.196;9.904;2024-01-07T09:22:30;-0.70;1.00
13642;DHT22;6894;52.196;9.904;2024-01-07T09:24:57;-0.60;99.90
13642;DHT22;6894;52.196;9.904;2024-01-07T09:27:23;-1.90;99.90
13642;DHT22;6894;52.196;9.904;2024-01-07T09:29:50;-0.80;99.90
13642;DHT22;6894;52.196;9.904;2024-01-07T09:32:17;-0.70;1.00
13642;DHT22;6894;52.196;9.904;2024-01-07T09:34:45;-0.70;1.00
13642;DHT22;6894;52.196;9.904;2024-01-07T09:37:12;-0.70;1.00
13642;DHT22;6894;52.196;9.904;2024-01-07T09:39:39;-0.70;1.00
13642;DHT22;6894;52.196;9.904;2024-01-07T09:42:07;-0.70;1.00
13642;DHT22;6894;52.196;9.904;2024-01-07T09:44:38;-0.70;1.00
13642;DHT22;6894;52.196;9.904;2024-01-07T09:47:05;-0.70;1.00
13642;DHT22;6894;52.196;9.904;2024-01-07T09:49:33;-0.70;1.00
13642;DHT22;6894;52.196;9.904;2024-01-07T09:52:04;-0.70;1.00
13642;DHT22;6894;52.196;9.904;2024-01-07T09:54:31;-0.60;1.00
13642;DHT22;6894;52.196;9.904;2024-01-07T09:57:01;-0.60;1.00
13642;DHT22;6894;52.196;9.904;2024-01-07T09:59:28;-0.60;1.00
13642;DHT22;6894;52.196;9.904;2024-01-07T10:01:56;-0.60;1.00
13642;DHT22;6894;52.196;9.904;2024-01-07T10:04:24;-0.50;1.00
13642;DHT22;6894;52.196;9.904;2024-01-07T10:06:51;-0.60;1.00
13642;DHT22;6894;52.196;9.904;2024-01-07T10:09:22;-0.50;1.00
13642;DHT22;6894;52.196;9.904;2024-01-07T10:11:51;-0.50;1.00
13642;DHT22;6894;52.196;9.904;2024-01-07T10:14:18;-0.50;1.00
13642;DHT22;6894;52.196;9.904;2024-01-07T10:16:45;-0.50;1.00
13642;DHT22;6894;52.196;9.904;2024-01-07T10:19:19;-0.40;1.00
13642;DHT22;6894;52.196;9.904;2024-01-07T10:21:46;-0.40;1.00
13642;DHT22;6894;52.196;9.904;2024-01-07T10:24:14;-0.40;1.00
13642;DHT22;6894;52.196;9.904;2024-01-07T10:26:42;-0.40;1.00
13642;DHT22;6894;52.196;9.904;2024-01-07T10:29:09;-0.40;1.00
13642;DHT22;6894;52.196;9.904;2024-01-07T10:31:38;-0.40;19.30
13642;DHT22;6894;52.196;9.904;2024-01-07T10:34:07;-0.40;19.10
13642;DHT22;6894;52.196;9.904;2024-01-07T10:36:34;-0.40;7.60
13642;DHT22;6894;52.196;9.904;2024-01-07T10:39:01;-0.40;32.00
13642;DHT22;6894;52.196;9.904;2024-01-07T10:41:29;-0.30;69.50
13642;DHT22;6894;52.196;9.904;2024-01-07T10:43:58;-0.30;78.50
13642;DHT22;6894;52.196;9.904;2024-01-07T10:46:27;-0.30;73.70
13642;DHT22;6894;52.196;9.904;2024-01-07T10:49:00;-0.30;85.40
13642;DHT22;6894;52.196;9.904;2024-01-07T10:51:33;-0.30;93.60
13642;DHT22;6894;52.196;9.904;2024-01-07T10:54:00;-0.30;49.50
13642;DHT22;6894;52.196;9.904;2024-01-07T10:56:33;-0.20;73.10
13642;DHT22;6894;52.196;9.904;2024-01-07T10:59:04;-0.20;99.90
13642;DHT22;6894;52.196;9.904;2024-01-07T11:01:31;-0.20;99.90
13642;DHT22;6894;52.196;9.904;2024-01-07T11:04:08;-0.30;2.90
13642;DHT22;6894;52.196;9.904;2024-01-07T11:06:41;-0.20;26.60
13642;DHT22;6894;52.196;9.904;2024-01-07T11:09:19;-0.20;87.00
13642;DHT22;6894;52.196;9.904;2024-01-07T11:11:46;-0.20;40.10
13642;DHT22;6894;52.196;9.904;2024-01-07T11:14:37;-0.20;23.80
13642;DHT22;6894;52.196;9.904;2024-01-07T11:17:05;-0.20;1.00
13642;DHT22;6894;52.196;9.904;2024-01-07T11:19:32;-0.20;1.00
13642;DHT22;6894;52.196;9.904;2024-01-07T11:22:21;-0.30;99.90
13642;DHT22;6894;52.196;9.904;2024-01-07T11:24:48;-0.20;1.00
13642;DHT22;6894;52.196;9.904;2024-01-07T11:27:15;-0.20;1.00
13642;DHT22;6894;52.196;9.904;2024-01-07T11:29:43;-0.20;1.00
13642;DHT22;6894;52.196;9.904;2024-01-07T11:32:12;-0.10;1.00
13642;DHT22;6894;52.196;9.904;2024-01-07T11:34:40;-0.10;1.00
13642;DHT22;6894;52.196;9.904;2024-01-07T11:37:10;-0.10;1.00
13642;DHT22;6894;52.196;9.904;2024-01-07T11:39:38;-0.10;1.00
13642;DHT22;6894;52.196;9.904;2024-01-07T11:42:05;0.00;1.00
13642;DHT22;6894;52.196;9.904;2024-01-07T11:44:34;-0.10;1.00
13642;DHT22;6894;52.196;9.904;2024-01-07T11:47:04;-0.10;1.00
13642;DHT22;6894;52.196;9.904;2024-01-07T11:49:32;0.00;1.00
13642;DHT22;6894;52.196;9.904;2024-01-07T11:51:58;0.00;1.00
13642;DHT22;6894;52.196;9.904;2024-01-07T11:54:27;0.00;1.00
13642;DHT22;6894;52.196;9.904;2024-01-07T11:56:55;0.00;1.00
13642;DHT22;6894;52.196;9.904;2024-01-07T11:59:22;0.00;1.00
13642;DHT22;6894;52.196;9.904;2024-01-07T12:01:49;0.10;1.00
13642;DHT22;6894;52.196;9.904;2024-01-07T12:04:17;0.10;1.00
13642;DHT22;6894;52.196;9.904;2024-01-07T12:06:44;0.10;1.00
13642;DHT22;6894;52.196;9.904;2024-01-07T12:09:12;0.20;42.20
13642;DHT22;6894;52.196;9.904;2024-01-07T12:11:39;0.20;56.00
13642;DHT22;6894;52.196;9.904;2024-01-07T12:14:07;0.30;78.50
13642;DHT22;6894;52.196;9.904;2024-01-07T12:16:34;0.20;90.10
13642;DHT22;6894;52.196;9.904;2024-01-07T12:19:01;0.30;95.00
13642;DHT22;6894;52.196;9.904;2024-01-07T12:21:29;0.30;42.00
13642;DHT22;6894;52.196;9.904;2024-01-07T12:23:57;0.30;1.00
13642;DHT22;6894;52.196;9.904;2024-01-07T12:26:26;0.30;56.10
13642;DHT22;6894;52.196;9.904;2024-01-07T12:28:53;0.30;99.90
13642;DHT22;6894;52.196;9.904;2024-01-07T12:31:21;0.40;99.90
13642;DHT22;6894;52.196;9.904;2024-01-07T12:33:48;0.40;99.90
13642;DHT22;6894;52.196;9.904;2024-01-07T12:36:14;0.40;99.90
13642;DHT22;6894;52.196;9.904;2024-01-07T12:38:43;0.40;99.90
13642;DHT22;6894;52.196;9.904;2024-01-07T12:41:09;0.40;99.90
13642;DHT22;6894;52.196;9.904;2024-01-07T12:43:38;0.40;1.00
13642;DHT22;6894;52.196;9.904;2024-01-07T12:46:04;0.40;1.00
13642;DHT22;6894;52.196;9.904;2024-01-07T12:48:31;0.40;1.00
13642;DHT22;6894;52.196;9.904;2024-01-07T12:50:58;0.40;1.00
13642;DHT22;6894;52.196;9.904;2024-01-07T12:53:25;0.40;1.00
13642;DHT22;6894;52.196;9.904;2024-01-07T12:55:53;0.40;1.00
13642;DHT22;6894;52.196;9.904;2024-01-07T12:58:20;0.40;1.00
13642;DHT22;6894;52.196;9.904;2024-01-07T13:00:47;0.40;1.00
13642;DHT22;6894;52.196;9.904;2024-01-07T13:03:14;0.40;1.00
13642;DHT22;6894;52.196;9.904;2024-01-07T13:05:43;0.40;1.00
13642;DHT22;6894;52.196;9.904;2024-01-07T13:08:11;0.50;1.00
13642;DHT22;6894;52.196;9.904;2024-01-07T13:10:38;0.40;1.00
13642;DHT22;6894;52.196;9.904;2024-01-07T13:13:06;0.40;1.00
13642;DHT22;6894;52.196;9.904;2024-01-07T13:15:35;0.40;8.80
13642;DHT22;6894;52.196;9.904;2024-01-07T13:18:02;0.50;49.90
13642;DHT22;6894;52.196;9.904;2024-01-07T13:20:29;0.40;96.50
13642;DHT22;6894;52.196;9.904;2024-01-07T13:22:56;0.50;99.90
13642;DHT22;6894;52.196;9.904;2024-01-07T13:25:22;0.50;99.90
13642;DHT22;6894;52.196;9.904;2024-01-07T13:27:49;0.50;99.90
13642;DHT22;6894;52.196;9.904;2024-01-07T13:30:18;0.50;99.90
13642;DHT22;6894;52.196;9.904;2024-01-07T13:32:45;0.50;99.90
13642;DHT22;6894;52.196;9.904;2024-01-07T13:35:12;1.00;99.90
13642;DHT22;6894;52.196;9.904;2024-01-07T13:37:40;0.40;99.90
13642;DHT22;6894;52.196;9.904;2024-01-07T13:40:09;0.50;99.90
13642;DHT22;6894;52.196;9.904;2024-01-07T13:42:36;0.40;99.90
13642;DHT22;6894;52.196;9.904;2024-01-07T13:45:04;0.40;99.90
13642;DHT22;6894;52.196;9.904;2024-01-07T13:47:32;0.50;99.90
13642;DHT22;6894;52.196;9.904;2024-01-07T13:50:01;0.40;99.90
13642;DHT22;6894;52.196;9.904;2024-01-07T13:52:29;0.40;99.90
13642;DHT22;6894;52.196;9.904;2024-01-07T13:54:56;0.50;99.90
13642;DHT22;6894;52.196;9.904;2024-01-07T13:57:22;0.40;99.90
13642;DHT22;6894;52.196;9.904;2024-01-07T13:59:50;0.50;99.90
13642;DHT22;6894;52.196;9.904;2024-01-07T14:02:16;0.50;99.90
13642;DHT22;6894;52.196;9.904;2024-01-07T14:04:46;0.50;99.90
13642;DHT22;6894;52.196;9.904;2024-01-07T14:07:13;0.50;99.90
13642;DHT22;6894;52.196;9.904;2024-01-07T14:09:40;0.60;99.90
13642;DHT22;6894;52.196;9.904;2024-01-07T14:12:08;0.60;99.90
13642;DHT22;6894;52.196;9.904;2024-01-07T14:14:34;0.50;99.90
13642;DHT22;6894;52.196;9.904;2024-01-07T14:17:01;0.60;99.90
13642;DHT22;6894;52.196;9.904;2024-01-07T14:19:28;0.60;99.90
13642;DHT22;6894;52.196;9.904;2024-01-07T14:21:56;0.60;99.90
13642;DHT22;6894;52.196;9.904;2024-01-07T14:24:24;0.60;99.90
13642;DHT22;6894;52.196;9.904;2024-01-07T14:26:51;0.60;99.90
13642;DHT22;6894;52.196;9.904;2024-01-07T14:29:17;0.60;99.90
13642;DHT22;6894;52.196;9.904;2024-01-07T14:31:44;0.60;99.90
13642;DHT22;6894;52.196;9.904;2024-01-07T14:34:11;0.60;99.90
13642;DHT22;6894;52.196;9.904;2024-01-07T14:36:39;0.60;99.90
13642;DHT22;6894;52.196;9.904;2024-01-07T14:39:10;0.60;99.90
13642;DHT22;6894;52.196;9.904;2024-01-07T14:41:38;0.60;99.90
13642;DHT22;6894;52.196;9.904;2024-01-07T14:44:07;0.60;1.00
13642;DHT22;6894;52.196;9.904;2024-01-07T14:46:34;0.50;99.90
13642;DHT22;6894;52.196;9.904;2024-01-07T14:49:01;0.60;99.90
13642;DHT22;6894;52.196;9.904;2024-01-07T14:51:27;0.50;1.00
13642;DHT22;6894;52.196;9.904;2024-01-07T14:53:56;0.50;99.90
13642;DHT22;6894;52.196;9.904;2024-01-07T14:56:24;0.50;99.90
13642;DHT22;6894;52.196;9.904;2024-01-07T14:58:51;0.50;99.90
13642;DHT22;6894;52.196;9.904;2024-01-07T15:01:18;0.40;99.90
13642;DHT22;6894;52.196;9.904;2024-01-07T15:03:45;0.50;99.90
13642;DHT22;6894;52.196;9.904;2024-01-07T15:06:11;0.40;99.90
13642;DHT22;6894;52.196;9.904;2024-01-07T15:08:40;0.40;1.00
13642;DHT22;6894;52.196;9.904;2024-01-07T15:11:07;0.30;1.00
13642;DHT22;6894;52.196;9.904;2024-01-07T15:13:36;0.30;1.00
13642;DHT22;6894;52.196;9.904;2024-01-07T15:16:05;0.30;1.00
13642;DHT22;6894;52.196;9.904;2024-01-07T15:18:32;0.30;1.00
13642;DHT22;6894;52.196;9.904;2024-01-07T15:20:59;0.30;1.00
13642;DHT22;6894;52.196;9.904;2024-01-07T15:23:26;0.30;1.00
13642;DHT22;6894;52.196;9.904;2024-01-07T15:25:53;0.30;1.00
13642;DHT22;6894;52.196;9.904;2024-01-07T15:28:20;0.20;1.00
13642;DHT22;6894;52.196;9.904;2024-01-07T15:30:48;0.20;1.00
13642;DHT22;6894;52.196;9.904;2024-01-07T15:33:15;0.20;1.00
13642;DHT22;6894;52.196;9.904;2024-01-07T15:35:42;0.20;1.00
13642;DHT22;6894;52.196;9.904;2024-01-07T15:38:09;0.20;1.00
13642;DHT22;6894;52.196;9.904;2024-01-07T15:40:36;0.20;99.90
13642;DHT22;6894;52.196;9.904;2024-01-07T15:43:03;0.20;99.90
13642;DHT22;6894;52.196;9.904;2024-01-07T15:45:30;0.20;99.90
13642;DHT22;6894;52.196;9.904;2024-01-07T15:47:58;0.10;99.90
13642;DHT22;6894;52.196;9.904;2024-01-07T15:50:25;0.10;99.90
13642;DHT22;6894;52.196;9.904;2024-01-07T15:52:53;0.10;99.90
13642;DHT22;6894;52.196;9.904;2024-01-07T15:55:21;0.10;99.90
13642;DHT22;6894;52.196;9.904;2024-01-07T15:57:48;0.10;99.90
13642;DHT22;6894;52.196;9.904;2024-01-07T16:00:15;0.10;99.90
13642;DHT22;6894;52.196;9.904;2024-01-07T16:02:42;0.10;99.90